Time;durP1;ratioP1;P1;durP2;ratioP2;P2;SDS_P1;SDS_P2;PMS_P1;PMS_P2;Temp;Humidity;BMP_temperature;BMP_pressure;BME280_temperature;BME280_humidity;BME280_pressure;Samples;Min_cycle;Max_cycle;Signal;HPM_P1;HPM_P2
2022/12/29 00:02:15;;;;;;;2.10;2.00;;;2.70;99.90;;;;;;4994078;28;20312;-85
2022/12/29 00:04:41;;;;;;;2.07;1.83;;;2.70;99.90;;;;;;5011657;28;20240;-85
2022/12/29 00:07:07;;;;;;;3.20;1.63;;;2.70;99.90;;;;;;5011815;28;20638;-85
2022/12/29 00:09:34;;;;;;;2.17;1.97;;;2.70;99.90;;;;;;4994064;28;20276;-85
2022/12/29 00:12:01;;;;;;;1.63;1.53;;;2.70;99.90;;;;;;5010101;28;20194;-85
2022/12/29 00:17:11;;;;;;;1.97;1.87;;;2.70;99.90;;;;;;4991800;28;20193;-85
2022/12/29 00:36:24;;;;;;;2.73;1.87;;;2.60;99.90;;;;;;4977663;28;20171;-85
2022/12/29 00:44:32;;;;;;;1.10;1.10;;;2.50;99.90;;;;;;4991475;28;20173;-85
2022/12/29 00:47:02;;;;;;;4.37;1.83;;;2.60;99.90;;;;;;4975770;28;20182;-85
2022/12/29 00:49:31;;;;;;;2.10;1.93;;;2.50;99.90;;;;;;4977681;28;20194;-85
2022/12/29 00:52:03;;;;;;;0.97;0.93;;;2.50;99.90;;;;;;4995322;28;20178;-85
2022/12/29 00:54:33;;;;;;;1.50;1.50;;;2.50;99.90;;;;;;4995338;28;20181;-85
2022/12/29 00:56:59;;;;;;;1.83;1.53;;;2.50;99.90;;;;;;4995271;28;20180;-85
2022/12/29 00:59:25;;;;;;;1.17;1.17;;;2.50;99.90;;;;;;4995032;28;20218;-85
2022/12/29 01:01:52;;;;;;;2.47;1.57;;;2.50;99.90;;;;;;4995147;28;20178;-85
2022/12/29 01:04:19;;;;;;;2.33;2.13;;;2.50;99.90;;;;;;4993499;28;20240;-86
2022/12/29 01:06:45;;;;;;;2.10;1.83;;;2.40;99.90;;;;;;4995281;28;20615;-85
2022/12/29 01:11:55;;;;;;;2.50;2.30;;;2.40;99.90;;;;;;4994799;28;20182;-85
2022/12/29 01:14:22;;;;;;;2.10;1.60;;;2.40;99.90;;;;;;4998903;28;20177;-85
2022/12/29 01:16:48;;;;;;;1.90;1.80;;;2.40;99.90;;;;;;5010711;28;20186;-86
2022/12/29 01:19:14;;;;;;;1.87;1.77;;;2.40;99.90;;;;;;4988626;28;20206;-85
2022/12/29 01:21:40;;;;;;;1.30;1.20;;;2.40;99.90;;;;;;4996718;28;20249;-86
2022/12/29 01:24:06;;;;;;;3.03;2.53;;;2.40;99.90;;;;;;4997545;28;20187;-86
2022/12/29 01:26:32;;;;;;;2.27;2.07;;;2.40;99.90;;;;;;4997199;28;20208;-86
2022/12/29 01:28:57;;;;;;;1.87;1.63;;;2.40;99.90;;;;;;5014443;28;20268;-85
2022/12/29 01:31:23;;;;;;;4.43;3.20;;;2.40;99.90;;;;;;5013859;28;20623;-86
2022/12/29 01:33:49;;;;;;;1.27;1.20;;;2.40;99.90;;;;;;4996941;28;20232;-86
2022/12/29 01:36:17;;;;;;;1.63;1.50;;;2.40;99.90;;;;;;4996789;28;20639;-85
2022/12/29 01:38:43;;;;;;;1.83;1.70;;;2.40;99.90;;;;;;4996475;28;20206;-86
2022/12/29 01:41:11;;;;;;;2.83;2.60;;;2.40;99.90;;;;;;4996695;28;20189;-86
2022/12/29 01:43:54;;;;;;;2.77;2.03;;;2.50;99.90;;;;;;5014139;28;20173;-86
2022/12/29 01:46:29;;;;;;;2.47;2.27;;;2.50;99.90;;;;;;5014118;28;20229;-86
2022/12/29 01:49:08;;;;;;;3.57;3.23;;;2.50;99.90;;;;;;5013917;28;20184;-85
2022/12/29 01:51:48;;;;;;;1.87;1.77;;;2.50;99.90;;;;;;5004956;28;20219;-86
2022/12/29 01:54:38;;;;;;;1.63;1.53;;;2.50;99.90;;;;;;4994507;28;20214;-86
2022/12/29 01:57:08;;;;;;;1.63;1.53;;;2.50;99.90;;;;;;4976845;28;20196;-86
2022/12/29 01:59:39;;;;;;;1.73;1.63;;;2.50;99.90;;;;;;4993808;28;20281;-86
2022/12/29 02:02:06;;;;;;;1.50;1.40;;;2.50;99.90;;;;;;4992930;28;20627;-86
2022/12/29 02:04:33;;;;;;;2.13;1.47;;;2.40;99.90;;;;;;4975990;28;20236;-85
2022/12/29 02:07:06;;;;;;;1.40;1.30;;;2.50;99.90;;;;;;4976728;28;20183;-86
2022/12/29 02:09:31;;;;;;;1.37;1.30;;;2.50;99.90;;;;;;4994677;28;20215;-86
2022/12/29 02:11:58;;;;;;;1.83;1.73;;;2.50;99.90;;;;;;4995258;28;20598;-85
2022/12/29 02:14:24;;;;;;;1.83;1.73;;;2.50;99.90;;;;;;4997487;28;20195;-85
2022/12/29 02:17:18;;;;;;;2.97;1.70;;;2.50;99.90;;;;;;4969640;28;20198;-86
2022/12/29 02:20:22;;;;;;;2.27;2.07;;;2.40;99.90;;;;;;4997104;28;20177;-86
2022/12/29 02:23:25;;;;;;;1.93;1.83;;;2.40;99.90;;;;;;4992998;28;20212;-85
2022/12/29 02:26:13;;;;;;;2.23;2.03;;;2.40;99.90;;;;;;5021860;28;20177;-85
2022/12/29 02:29:02;;;;;;;2.90;1.90;;;2.40;99.90;;;;;;4999985;28;20196;-86
2022/12/29 02:31:51;;;;;;;6.20;1.83;;;2.40;99.90;;;;;;4964484;28;20197;-86
2022/12/29 02:34:26;;;;;;;1.47;1.47;;;2.40;99.90;;;;;;4999757;28;20169;-86
2022/12/29 02:37:05;;;;;;;1.40;1.40;;;2.40;99.90;;;;;;5023260;28;20188;-85
2022/12/29 02:39:55;;;;;;;2.77;1.67;;;2.40;99.90;;;;;;5038194;28;20778;-87
2022/12/29 02:42:33;;;;;;;1.00;1.00;;;2.40;99.90;;;;;;5037735;28;20203;-86
2022/12/29 02:45:08;;;;;;;2.30;2.13;;;2.40;99.90;;;;;;4996167;28;20175;-85
2022/12/29 02:48:03;;;;;;;1.60;1.50;;;2.40;99.90;;;;;;5013316;28;20193;-85
2022/12/29 02:50:38;;;;;;;2.00;1.90;;;2.40;99.90;;;;;;4968974;28;20198;-86
2022/12/29 02:53:15;;;;;;;1.47;1.47;;;2.40;99.90;;;;;;5000925;28;20172;-86
2022/12/29 02:55:48;;;;;;;1.73;1.40;;;2.40;99.90;;;;;;4987021;28;20276;-86
2022/12/29 02:58:20;;;;;;;1.77;1.67;;;2.40;99.90;;;;;;4987131;28;20203;-85
2022/12/29 03:00:55;;;;;;;2.40;2.00;;;2.40;99.90;;;;;;4991162;28;20198;-85
2022/12/29 03:03:39;;;;;;;1.73;1.60;;;2.30;99.90;;;;;;4998607;28;20243;-85
2022/12/29 03:06:51;;;;;;;3.07;2.87;;;2.30;99.90;;;;;;4993320;28;20570;-85
2022/12/29 03:09:29;;;;;;;1.90;1.80;;;2.40;99.90;;;;;;4975184;28;20336;-85
2022/12/29 03:12:09;;;;;;;1.60;1.57;;;2.40;99.90;;;;;;5002150;28;20178;-85
2022/12/29 03:17:33;;;;;;;1.57;1.47;;;2.40;99.90;;;;;;5004896;28;20229;-85
2022/12/29 03:20:07;;;;;;;11.87;1.87;;;2.40;99.90;;;;;;5001742;28;20193;-86
2022/12/29 03:22:39;;;;;;;1.17;1.07;;;2.40;99.90;;;;;;4992315;28;20589;-86
2022/12/29 03:25:23;;;;;;;1.50;1.33;;;2.50;99.90;;;;;;5006175;28;20183;-86
2022/12/29 03:28:07;;;;;;;1.20;1.20;;;2.40;99.90;;;;;;4995148;28;20271;-86
2022/12/29 03:30:35;;;;;;;2.10;1.60;;;2.50;99.90;;;;;;4995006;28;20188;-86
2022/12/29 03:33:07;;;;;;;3.20;1.77;;;2.40;99.90;;;;;;5012660;28;20266;-85
2022/12/29 03:35:37;;;;;;;1.83;1.40;;;2.40;99.90;;;;;;4995210;28;20190;-85
2022/12/29 03:38:21;;;;;;;1.63;1.53;;;2.50;99.90;;;;;;5012808;28;20230;-85
2022/12/29 03:40:51;;;;;;;1.90;1.20;;;2.60;99.90;;;;;;4995189;28;20626;-85
2022/12/29 03:43:17;;;;;;;1.83;1.73;;;2.50;99.90;;;;;;5012590;28;20523;-86
2022/12/29 03:45:43;;;;;;;1.97;1.87;;;2.60;99.90;;;;;;5012289;28;20197;-85
2022/12/29 03:48:09;;;;;;;1.63;1.53;;;2.60;99.90;;;;;;4979156;28;20189;-85
2022/12/29 03:50:34;;;;;;;1.90;1.73;;;2.50;99.90;;;;;;5012526;28;20182;-85
2022/12/29 03:53:00;;;;;;;1.77;1.67;;;2.50;99.90;;;;;;4995356;28;20548;-85
2022/12/29 03:55:25;;;;;;;1.67;1.57;;;2.50;99.90;;;;;;4995272;28;20305;-84
2022/12/29 03:57:51;;;;;;;1.83;1.73;;;2.50;99.90;;;;;;5009188;28;20212;-85
2022/12/29 04:00:17;;;;;;;1.87;1.77;;;2.50;99.90;;;;;;4995306;28;20586;-86
2022/12/29 04:02:43;;;;;;;2.60;2.07;;;2.50;99.90;;;;;;5005955;28;20200;-85
2022/12/29 04:05:08;;;;;;;1.00;1.00;;;2.50;99.90;;;;;;4989823;28;20188;-86
2022/12/29 04:07:34;;;;;;;1.83;1.43;;;2.50;99.90;;;;;;4975707;28;20694;-85
2022/12/29 04:09:59;;;;;;;3.50;1.63;;;2.50;99.90;;;;;;4994373;28;20699;-85
2022/12/29 04:12:25;;;;;;;1.80;1.37;;;2.40;99.90;;;;;;4987253;28;20556;-86
2022/12/29 04:14:51;;;;;;;3.37;3.03;;;2.50;99.90;;;;;;4991667;28;20236;-86
2022/12/29 04:17:17;;;;;;;1.63;1.53;;;;;;;;;;5012429;28;20181;-85
2022/12/29 04:19:42;;;;;;;3.47;2.10;;;2.50;99.90;;;;;;5012367;28;20196;-85
2022/12/29 04:22:08;;;;;;;7.67;2.03;;;2.40;99.90;;;;;;4981763;28;20181;-85
2022/12/29 04:24:34;;;;;;;3.43;1.33;;;2.40;99.90;;;;;;4990639;28;20200;-85
2022/12/29 04:26:59;;;;;;;2.63;2.13;;;2.40;99.90;;;;;;4963585;28;20189;-85
2022/12/29 04:29:25;;;;;;;4.30;1.90;;;2.40;99.90;;;;;;4970684;28;20199;-85
2022/12/29 04:31:50;;;;;;;1.33;1.27;;;2.40;99.90;;;;;;4982305;28;20234;-85
2022/12/29 04:34:16;;;;;;;1.73;1.63;;;2.40;99.90;;;;;;4998655;28;20185;-86
2022/12/29 04:36:42;;;;;;;1.33;1.23;;;2.50;99.90;;;;;;4998546;28;20181;-85
2022/12/29 04:39:07;;;;;;;2.93;1.47;;;2.40;99.90;;;;;;4995255;28;20216;-86
2022/12/29 04:41:33;;;;;;;2.03;1.33;;;2.50;99.90;;;;;;4996096;28;20184;-86
2022/12/29 04:43:59;;;;;;;1.70;1.60;;;2.50;99.90;;;;;;5000846;28;20228;-86
2022/12/29 04:46:24;;;;;;;1.67;1.40;;;2.50;99.90;;;;;;5016062;28;20631;-86
2022/12/29 04:48:50;;;;;;;2.30;1.73;;;2.50;99.90;;;;;;4962393;28;20291;-86
2022/12/29 04:51:16;;;;;;;2.07;1.30;;;2.50;99.90;;;;;;4978809;28;20208;-86
2022/12/29 04:53:41;;;;;;;2.10;1.90;;;2.50;99.90;;;;;;4990933;28;20267;-87
2022/12/29 04:56:08;;;;;;;2.00;1.10;;;2.50;99.90;;;;;;5002055;28;20635;-86
2022/12/29 04:58:35;;;;;;;1.50;1.43;;;2.50;99.90;;;;;;4985320;28;20267;-86
2022/12/29 05:01:00;;;;;;;1.10;1.03;;;2.50;99.90;;;;;;4978519;28;20204;-86
2022/12/29 05:03:26;;;;;;;2.77;1.67;;;2.50;99.90;;;;;;4993503;28;20590;-86
2022/12/29 05:05:56;;;;;;;2.67;1.37;;;2.60;99.90;;;;;;4987216;28;20287;-85
2022/12/29 05:08:22;;;;;;;5.20;2.57;;;2.60;99.90;;;;;;4998804;28;20177;-85
2022/12/29 05:10:50;;;;;;;1.40;1.30;;;2.70;99.90;;;;;;4998120;28;20316;-86
2022/12/29 05:13:16;;;;;;;2.67;1.93;;;2.70;99.90;;;;;;4979307;28;20610;-85
2022/12/29 05:15:50;;;;;;;2.67;1.80;;;2.70;99.90;;;;;;4962959;28;20240;-86
2022/12/29 05:18:16;;;;;;;1.73;1.63;;;2.70;99.90;;;;;;4996684;28;20238;-85
2022/12/29 05:20:41;;;;;;;2.20;2.00;;;2.70;99.90;;;;;;4978699;28;20190;-86
2022/12/29 05:23:07;;;;;;;1.10;1.10;;;2.70;99.90;;;;;;4996425;28;20644;-86
2022/12/29 05:25:33;;;;;;;1.97;1.80;;;2.70;99.90;;;;;;4994703;28;20185;-86
2022/12/29 05:27:58;;;;;;;1.77;1.67;;;2.70;99.90;;;;;;4986442;28;20183;-85
2022/12/29 05:30:24;;;;;;;1.40;1.30;;;2.80;99.90;;;;;;4981163;28;20186;-85
2022/12/29 05:32:49;;;;;;;6.00;2.03;;;2.80;99.90;;;;;;4982959;28;20193;-85
2022/12/29 05:35:15;;;;;;;1.57;1.50;;;2.80;99.90;;;;;;4970440;28;20193;-85
2022/12/29 05:37:44;;;;;;;2.43;2.27;;;2.80;99.90;;;;;;4994360;28;20209;-86
2022/12/29 05:40:10;;;;;;;2.43;1.23;;;2.80;99.90;;;;;;4966119;28;20197;-86
2022/12/29 05:42:36;;;;;;;2.63;1.77;;;2.80;99.90;;;;;;4946389;28;20185;-86
2022/12/29 05:45:01;;;;;;;5.63;3.80;;;2.70;99.90;;;;;;4978712;28;20655;-85
2022/12/29 05:47:27;;;;;;;6.87;4.57;;;2.80;99.90;;;;;;4978757;28;20189;-85
2022/12/29 05:49:53;;;;;;;3.60;3.03;;;2.70;99.90;;;;;;4946654;28;20185;-86
2022/12/29 05:52:19;;;;;;;3.67;1.43;;;2.70;99.90;;;;;;4987664;28;20217;-86
2022/12/29 05:54:44;;;;;;;1.77;1.33;;;2.70;99.90;;;;;;4994717;28;20185;-86
2022/12/29 05:57:10;;;;;;;1.57;1.47;;;2.70;99.90;;;;;;4996130;28;20186;-85
2022/12/29 05:59:35;;;;;;;4.73;1.63;;;2.70;99.90;;;;;;5004608;28;20234;-85
2022/12/29 06:02:01;;;;;;;1.83;1.63;;;2.70;99.90;;;;;;4972127;28;20241;-86
2022/12/29 06:04:27;;;;;;;2.47;1.43;;;2.70;99.90;;;;;;4986086;28;20240;-85
2022/12/29 06:06:52;;;;;;;1.23;1.23;;;2.70;99.90;;;;;;4997666;28;20271;-85
2022/12/29 06:09:18;;;;;;;2.17;1.60;;;2.70;99.90;;;;;;4994735;28;20280;-85
2022/12/29 06:11:43;;;;;;;1.93;1.80;;;2.70;99.90;;;;;;4995255;28;20264;-86
2022/12/29 06:14:09;;;;;;;2.87;2.60;;;2.70;99.90;;;;;;4946344;28;20212;-85
2022/12/29 06:16:35;;;;;;;1.10;1.10;;;2.70;99.90;;;;;;4962484;28;20227;-85
2022/12/29 06:19:01;;;;;;;5.50;3.63;;;2.70;99.90;;;;;;4985297;28;20232;-86
2022/12/29 06:21:27;;;;;;;3.13;2.40;;;2.70;99.90;;;;;;5002661;28;20681;-85
2022/12/29 06:23:54;;;;;;;3.70;2.30;;;2.70;99.90;;;;;;4993184;28;20185;-86
2022/12/29 06:26:20;;;;;;;2.03;1.50;;;3.00;99.90;;;;;;4988103;28;20193;-86
2022/12/29 06:28:46;;;;;;;3.97;1.97;;;2.80;99.90;;;;;;4986556;28;20325;-85
2022/12/29 06:31:11;;;;;;;1.97;1.77;;;2.80;99.90;;;;;;5006862;28;20271;-85
2022/12/29 06:33:38;;;;;;;1.70;1.60;;;2.70;99.90;;;;;;4987252;28;20192;-85
2022/12/29 06:36:07;;;;;;;1.33;1.33;;;2.80;99.90;;;;;;5003448;28;20761;-87
2022/12/29 06:38:34;;;;;;;2.90;1.53;;;2.80;99.90;;;;;;4968740;28;20204;-85
2022/12/29 06:41:00;;;;;;;5.40;1.67;;;2.80;99.90;;;;;;5003487;28;20194;-85
2022/12/29 06:43:26;;;;;;;4.93;2.60;;;2.80;99.90;;;;;;4989046;28;20185;-87
2022/12/29 06:45:51;;;;;;;1.80;1.70;;;2.90;99.90;;;;;;5002929;28;20185;-86
2022/12/29 06:48:17;;;;;;;2.07;1.83;;;2.90;99.90;;;;;;5003533;28;20725;-86
2022/12/29 06:50:43;;;;;;;3.03;2.23;;;2.90;99.90;;;;;;5005483;28;20261;-86
2022/12/29 06:53:08;;;;;;;4.73;1.93;;;2.90;99.90;;;;;;5003530;28;20188;-86
2022/12/29 06:55:34;;;;;;;4.97;2.67;;;3.00;99.90;;;;;;5002730;28;20214;-85
2022/12/29 06:58:01;;;;;;;2.87;2.27;;;3.00;99.90;;;;;;4987897;28;20213;-86
2022/12/29 07:00:26;;;;;;;8.03;3.17;;;3.00;99.90;;;;;;4969973;28;20204;-86
2022/12/29 07:02:52;;;;;;;7.03;3.30;;;;;;;;;;5002408;28;20189;-86
2022/12/29 07:05:18;;;;;;;3.23;1.87;;;3.00;99.90;;;;;;5002829;28;20260;-86
2022/12/29 07:07:44;;;;;;;7.50;2.70;;;3.10;99.90;;;;;;4986881;28;20279;-85
2022/12/29 07:10:10;;;;;;;2.80;2.30;;;3.10;99.90;;;;;;5005356;28;20174;-85
2022/12/29 07:12:35;;;;;;;6.10;2.43;;;3.10;99.90;;;;;;4977566;28;20196;-85
2022/12/29 07:15:01;;;;;;;1.47;1.37;;;3.10;99.90;;;;;;4985423;28;20272;-86
2022/12/29 07:17:26;;;;;;;3.97;2.27;;;3.20;99.90;;;;;;4968855;28;20216;-85
2022/12/29 07:19:52;;;;;;;1.83;1.40;;;3.20;99.90;;;;;;4984116;28;20260;-86
2022/12/29 07:22:18;;;;;;;2.17;2.00;;;3.20;99.90;;;;;;4984744;28;20227;-85
2022/12/29 07:24:43;;;;;;;3.77;2.17;;;3.20;99.90;;;;;;5003026;28;20177;-86
2022/12/29 07:27:09;;;;;;;2.20;2.00;;;3.20;99.90;;;;;;5000756;28;20189;-86
2022/12/29 07:29:38;;;;;;;2.40;1.47;;;3.30;99.90;;;;;;5005530;28;20646;-86
2022/12/29 07:32:04;;;;;;;6.70;1.50;;;3.30;99.90;;;;;;5000742;28;20181;-86
2022/12/29 07:34:29;;;;;;;4.23;2.50;;;3.30;99.90;;;;;;5005338;28;20180;-85
2022/12/29 07:36:55;;;;;;;8.13;1.67;;;3.40;99.90;;;;;;4976119;28;20203;-85
2022/12/29 07:39:21;;;;;;;2.47;1.17;;;3.40;99.90;;;;;;5004695;28;20224;-85
2022/12/29 07:41:47;;;;;;;2.13;1.47;;;;;;;;;;4987242;28;20211;-85
2022/12/29 07:44:13;;;;;;;0.93;0.93;;;3.40;99.90;;;;;;4983106;28;20186;-86
2022/12/29 07:46:39;;;;;;;3.67;2.27;;;3.40;99.90;;;;;;4980677;28;20578;-86
2022/12/29 07:49:05;;;;;;;1.57;1.47;;;3.50;99.90;;;;;;4987102;28;20181;-86
2022/12/29 07:51:31;;;;;;;1.97;1.57;;;3.50;99.90;;;;;;4999408;28;20193;-85
2022/12/29 07:53:59;;;;;;;5.30;2.40;;;3.50;99.90;;;;;;5001932;28;20173;-86
2022/12/29 07:56:25;;;;;;;1.87;1.70;;;3.50;99.90;;;;;;4983277;28;20376;-86
2022/12/29 07:58:51;;;;;;;3.40;1.23;;;2.70;99.90;;;;;;4977516;28;20209;-86
2022/12/29 08:01:17;;;;;;;1.20;1.13;;;;;;;;;;4984926;28;20702;-86
2022/12/29 08:03:42;;;;;;;1.37;1.33;;;3.60;99.90;;;;;;4974391;28;20283;-87
2022/12/29 08:06:11;;;;;;;2.30;2.20;;;3.70;99.90;;;;;;4975290;28;20244;-85
2022/12/29 08:08:38;;;;;;;5.20;1.47;;;3.70;99.90;;;;;;4975601;28;20188;-87
2022/12/29 08:11:04;;;;;;;2.93;1.47;;;3.70;99.90;;;;;;4986605;28;20189;-85
2022/12/29 08:13:30;;;;;;;10.43;1.70;;;;;;;;;;5008839;28;20267;-86
2022/12/29 08:15:58;;;;;;;4.77;2.17;;;3.80;99.90;;;;;;4993340;28;20201;-88
2022/12/29 08:18:24;;;;;;;6.70;1.63;;;3.70;99.90;;;;;;4988334;28;20681;-86
2022/12/29 08:20:49;;;;;;;4.53;2.03;;;3.80;99.90;;;;;;4974626;28;20220;-86
2022/12/29 08:23:15;;;;;;;3.03;2.63;;;3.80;99.90;;;;;;4976100;28;20220;-87
2022/12/29 08:25:41;;;;;;;1.87;1.77;;;3.80;99.90;;;;;;5003228;28;20189;-85
2022/12/29 08:28:07;;;;;;;1.33;1.33;;;3.80;99.90;;;;;;4986473;28;20193;-86
2022/12/29 08:30:33;;;;;;;2.00;1.60;;;3.80;99.90;;;;;;4972342;28;20253;-86
2022/12/29 08:32:58;;;;;;;1.73;1.63;;;3.90;99.90;;;;;;4999978;28;20263;-87
2022/12/29 08:35:24;;;;;;;1.17;1.03;;;3.90;99.90;;;;;;4953488;28;20612;-85
2022/12/29 08:37:49;;;;;;;2.93;1.53;;;3.90;99.90;;;;;;4973231;28;20733;-86
2022/12/29 08:40:15;;;;;;;5.00;1.40;;;3.90;99.90;;;;;;4987641;28;20197;-88
2022/12/29 08:42:41;;;;;;;2.20;1.67;;;3.90;99.90;;;;;;4994903;28;20307;-87
2022/12/29 08:45:08;;;;;;;1.40;1.17;;;3.90;99.90;;;;;;4967380;28;20204;-88
2022/12/29 08:47:34;;;;;;;2.23;1.93;;;3.90;99.90;;;;;;4984543;28;20205;-86
2022/12/29 08:49:59;;;;;;;2.83;1.77;;;3.90;99.90;;;;;;4997773;28;20178;-89
2022/12/29 08:52:25;;;;;;;2.13;1.60;;;;;;;;;;5006611;28;20188;-89
2022/12/29 08:54:51;;;;;;;2.00;1.27;;;3.90;99.90;;;;;;5022416;28;20221;-86
2022/12/29 08:57:17;;;;;;;3.77;1.67;;;;;;;;;;5023805;28;20177;-87
2022/12/29 08:59:43;;;;;;;3.60;1.00;;;3.90;99.90;;;;;;5001767;28;20209;-88
2022/12/29 09:02:11;;;;;;;0.80;0.80;;;4.00;99.90;;;;;;5002607;28;20227;-86
2022/12/29 09:04:37;;;;;;;1.47;1.43;;;4.00;99.90;;;;;;4984213;28;20220;-90
2022/12/29 09:07:03;;;;;;;2.57;1.90;;;4.00;99.90;;;;;;5010250;28;20170;-89
2022/12/29 09:09:28;;;;;;;1.50;1.40;;;4.00;99.90;;;;;;5014615;28;20177;-89
2022/12/29 09:11:54;;;;;;;1.07;1.07;;;4.10;99.90;;;;;;4998717;28;20178;-87
2022/12/29 09:14:21;;;;;;;1.43;1.30;;;4.20;99.90;;;;;;4991458;28;20651;-87
2022/12/29 09:19:31;;;;;;;1.43;0.90;;;4.20;99.90;;;;;;4999311;28;20307;-87
2022/12/29 09:21:57;;;;;;;3.10;1.17;;;4.30;99.90;;;;;;4988361;28;20186;-85
2022/12/29 09:24:22;;;;;;;1.37;1.27;;;4.30;99.90;;;;;;4977003;28;20639;-86
2022/12/29 09:26:48;;;;;;;3.17;1.80;;;4.40;99.90;;;;;;4991391;28;20180;-86
2022/12/29 09:29:14;;;;;;;1.43;1.33;;;;;;;;;;4993132;28;20189;-85
2022/12/29 09:31:40;;;;;;;1.23;1.23;;;4.50;99.90;;;;;;4983807;28;20189;-85
2022/12/29 09:34:05;;;;;;;1.40;1.30;;;4.50;99.90;;;;;;4969537;28;20583;-85
2022/12/29 09:36:31;;;;;;;3.80;2.40;;;4.60;99.90;;;;;;4992152;28;20543;-85
2022/12/29 09:38:57;;;;;;;2.13;1.83;;;4.60;99.90;;;;;;4970207;28;20877;-84
2022/12/29 09:41:34;;;;;;;1.60;1.27;;;4.80;99.90;;;;;;4988018;28;20910;-84
2022/12/29 09:44:25;;;;;;;3.60;1.90;;;4.90;99.90;;;;;;4987111;28;20673;-85
2022/12/29 09:46:53;;;;;;;2.60;1.93;;;5.00;99.90;;;;;;4984041;28;20650;-85
2022/12/29 09:49:39;;;;;;;1.27;1.27;;;5.00;99.90;;;;;;5001625;28;20205;-84
2022/12/29 09:52:21;;;;;;;4.47;1.47;;;5.00;99.90;;;;;;5000475;28;20166;-86
2022/12/29 09:55:29;;;;;;;5.53;1.50;;;5.00;99.90;;;;;;4984842;28;20639;-85
2022/12/29 09:58:36;;;;;;;2.70;2.23;;;5.10;99.90;;;;;;4995349;28;20268;-85
2022/12/29 10:01:19;;;;;;;4.97;1.80;;;5.10;99.90;;;;;;4962010;28;20205;-84
2022/12/29 10:03:49;;;;;;;5.73;1.80;;;5.10;99.90;;;;;;4987801;28;20239;-85
2022/12/29 10:06:39;;;;;;;4.20;1.17;;;5.10;99.90;;;;;;5003181;28;20223;-85
2022/12/29 10:09:08;;;;;;;3.10;1.90;;;5.00;99.90;;;;;;4996995;28;20593;-85
2022/12/29 10:11:49;;;;;;;3.60;2.03;;;5.10;99.90;;;;;;5005204;28;20654;-85
2022/12/29 10:14:52;;;;;;;2.20;2.00;;;5.10;99.90;;;;;;5002474;28;20224;-85
2022/12/29 10:17:39;;;;;;;5.20;2.30;;;5.20;99.90;;;;;;4985085;28;20184;-85
2022/12/29 10:20:05;;;;;;;2.77;2.07;;;5.10;99.90;;;;;;4992759;28;20206;-86
2022/12/29 10:22:49;;;;;;;2.00;1.50;;;5.20;99.90;;;;;;5005348;28;20638;-86
2022/12/29 10:25:19;;;;;;;2.03;1.83;;;5.30;99.90;;;;;;4986466;28;20554;-85
2022/12/29 10:27:48;;;;;;;2.60;1.70;;;5.30;99.90;;;;;;4990048;28;20524;-85
2022/12/29 10:30:14;;;;;;;7.20;1.70;;;5.30;99.90;;;;;;4987585;28;20181;-85
2022/12/29 10:32:51;;;;;;;6.33;1.67;;;5.50;99.90;;;;;;4992439;28;20186;-86
2022/12/29 10:35:25;;;;;;;1.80;1.67;;;5.30;99.90;;;;;;5002361;28;20669;-86
2022/12/29 10:38:27;;;;;;;3.77;2.97;;;5.30;99.90;;;;;;4995723;28;20677;-84
2022/12/29 10:41:20;;;;;;;2.63;2.00;;;5.40;99.90;;;;;;5002415;28;20216;-85
2022/12/29 10:43:50;;;;;;;2.57;2.23;;;5.40;99.90;;;;;;5001724;28;20186;-85
2022/12/29 10:46:21;;;;;;;1.53;1.43;;;5.50;99.90;;;;;;4999220;28;20763;-85
2022/12/29 10:48:47;;;;;;;1.70;1.60;;;5.50;99.90;;;;;;4983517;28;20280;-85
2022/12/29 10:51:22;;;;;;;3.40;2.07;;;5.60;99.90;;;;;;4986041;28;20281;-85
2022/12/29 10:53:58;;;;;;;10.50;3.20;;;5.60;99.90;;;;;;4985918;28;20264;-85
2022/12/29 10:56:35;;;;;;;1.80;1.50;;;5.70;99.90;;;;;;4999883;28;20177;-85
2022/12/29 10:59:31;;;;;;;2.93;2.20;;;5.70;99.90;;;;;;4999934;28;20446;-85
2022/12/29 11:02:06;;;;;;;2.10;1.67;;;5.80;99.90;;;;;;4997756;28;20232;-85
2022/12/29 11:04:50;;;;;;;3.37;1.83;;;5.80;99.90;;;;;;4986041;28;20594;-84
2022/12/29 11:07:19;;;;;;;3.00;1.63;;;5.90;99.90;;;;;;4983795;28;20188;-84
2022/12/29 11:09:46;;;;;;;2.57;1.60;;;6.00;99.90;;;;;;4999204;28;20253;-84
2022/12/29 11:12:38;;;;;;;1.90;1.70;;;6.00;99.90;;;;;;4999473;28;20316;-84
2022/12/29 11:15:09;;;;;;;1.77;1.67;;;6.00;99.90;;;;;;4999802;28;20193;-84
2022/12/29 11:17:45;;;;;;;2.53;2.07;;;6.10;99.90;;;;;;5000118;28;20189;-85
2022/12/29 11:20:37;;;;;;;3.07;1.50;;;6.20;99.90;;;;;;4987157;28;20197;-85
2022/12/29 11:23:04;;;;;;;8.27;1.67;;;6.50;99.90;;;;;;4982243;28;20190;-85
2022/12/29 11:25:31;;;;;;;2.87;1.87;;;6.60;99.90;;;;;;4998221;28;20196;-86
2022/12/29 11:28:16;;;;;;;2.87;2.67;;;6.70;99.90;;;;;;4966881;28;20309;-86
2022/12/29 11:30:42;;;;;;;4.33;2.17;;;6.80;99.90;;;;;;4997689;28;20185;-86
2022/12/29 11:33:09;;;;;;;1.43;1.20;;;6.80;99.90;;;;;;4987671;28;20264;-86
2022/12/29 11:35:45;;;;;;;2.13;1.67;;;6.90;99.90;;;;;;4982736;28;20182;-86
2022/12/29 11:38:30;;;;;;;1.77;1.57;;;6.80;99.90;;;;;;4986981;28;20214;-87
2022/12/29 11:40:56;;;;;;;4.77;2.47;;;6.80;99.90;;;;;;5004014;28;20547;-86
2022/12/29 11:43:36;;;;;;;6.07;2.20;;;6.80;99.90;;;;;;4987157;28;20182;-86
2022/12/29 11:46:03;;;;;;;1.97;1.87;;;;;;;;;;4986922;28;20188;-87
2022/12/29 11:48:41;;;;;;;3.57;2.07;;;7.30;99.90;;;;;;4992458;28;20324;-87
2022/12/29 11:51:09;;;;;;;2.60;1.97;;;7.40;99.90;;;;;;5003074;28;20288;-85
2022/12/29 11:53:48;;;;;;;8.43;2.10;;;8.00;99.90;;;;;;4999818;28;20191;-85
2022/12/29 11:56:16;;;;;;;2.80;1.80;;;8.30;99.90;;;;;;5000569;28;20178;-87
2022/12/29 11:58:42;;;;;;;2.27;1.77;;;8.20;99.90;;;;;;4986738;28;20224;-85
2022/12/29 12:01:15;;;;;;;2.00;1.63;;;8.00;99.90;;;;;;4953767;28;20673;-85
2022/12/29 12:03:52;;;;;;;7.00;2.00;;;7.60;99.90;;;;;;4989330;28;20319;-85
2022/12/29 12:06:23;;;;;;;4.60;1.77;;;7.20;99.90;;;;;;5001810;28;20180;-86
2022/12/29 12:09:01;;;;;;;3.00;1.50;;;7.00;99.90;;;;;;5001657;28;20300;-85
2022/12/29 12:11:37;;;;;;;6.17;2.43;;;6.90;99.90;;;;;;5001205;28;20197;-86
2022/12/29 12:14:23;;;;;;;4.17;2.20;;;6.80;99.90;;;;;;4991372;28;20176;-85
2022/12/29 12:16:54;;;;;;;4.03;1.33;;;6.80;99.90;;;;;;5003190;28;20182;-85
2022/12/29 12:19:38;;;;;;;2.87;2.47;;;6.80;99.90;;;;;;5002951;28;20255;-85
2022/12/29 12:22:24;;;;;;;3.77;2.27;;;6.80;99.90;;;;;;5000507;28;20193;-85
2022/12/29 12:25:12;;;;;;;7.30;1.83;;;6.80;99.90;;;;;;4983048;28;20181;-85
2022/12/29 12:27:43;;;;;;;2.63;2.07;;;6.70;99.90;;;;;;4986304;28;20718;-86
2022/12/29 12:30:19;;;;;;;3.20;1.90;;;6.70;99.90;;;;;;4999736;28;20166;-86
2022/12/29 12:33:15;;;;;;;8.93;3.33;;;6.70;99.90;;;;;;4999766;28;20215;-86
2022/12/29 12:35:41;;;;;;;2.53;1.67;;;;;;;;;;4986786;28;20205;-87
2022/12/29 12:38:21;;;;;;;9.17;1.97;;;6.70;99.90;;;;;;4998944;28;20213;-86
2022/12/29 12:41:21;;;;;;;8.47;2.17;;;6.70;99.90;;;;;;4995296;28;20186;-86
2022/12/29 12:44:10;;;;;;;2.03;1.83;;;6.60;99.90;;;;;;4955967;28;20663;-86
2022/12/29 12:46:45;;;;;;;2.73;1.90;;;6.60;99.90;;;;;;4999834;28;20197;-85
2022/12/29 12:49:54;;;;;;;2.90;2.17;;;6.50;99.90;;;;;;4990642;28;20287;-86
2022/12/29 12:52:58;;;;;;;2.50;1.70;;;6.50;99.90;;;;;;4976576;28;20241;-86
2022/12/29 12:55:47;;;;;;;6.17;2.03;;;6.50;99.90;;;;;;4911612;29;20205;-85
2022/12/29 12:58:21;;;;;;;3.93;2.50;;;6.60;99.90;;;;;;4907531;29;20216;-85
2022/12/29 13:00:47;;;;;;;2.47;2.10;;;6.60;99.90;;;;;;4974021;28;20201;-86
2022/12/29 13:03:32;;;;;;;5.17;2.03;;;6.60;99.90;;;;;;4984390;28;20591;-85
2022/12/29 13:06:16;;;;;;;1.47;1.37;;;6.70;99.90;;;;;;4999045;28;20178;-85
2022/12/29 13:09:12;;;;;;;2.63;1.83;;;6.60;99.90;;;;;;4992462;28;20201;-84
2022/12/29 13:11:46;;;;;;;2.90;2.37;;;6.70;99.90;;;;;;4999239;28;20200;-85
2022/12/29 13:14:21;;;;;;;4.13;2.67;;;6.70;99.90;;;;;;4984267;28;20181;-84
2022/12/29 13:17:13;;;;;;;3.63;2.33;;;6.70;99.90;;;;;;4983460;28;20184;-84
2022/12/29 13:19:54;;;;;;;2.47;1.60;;;6.70;99.90;;;;;;5000526;28;20229;-85
2022/12/29 13:22:38;;;;;;;10.60;2.40;;;6.80;99.90;;;;;;5003466;28;20185;-85
2022/12/29 13:25:12;;;;;;;5.53;1.90;;;6.80;99.90;;;;;;4991360;28;20169;-85
2022/12/29 13:27:44;;;;;;;4.50;2.50;;;6.80;99.90;;;;;;4984823;28;20610;-85
2022/12/29 13:30:22;;;;;;;2.40;1.83;;;6.80;99.90;;;;;;4990508;28;20174;-85
2022/12/29 13:33:00;;;;;;;4.17;2.73;;;6.80;99.90;;;;;;4986213;28;20185;-86
2022/12/29 13:35:31;;;;;;;4.30;2.37;;;6.80;99.90;;;;;;4980250;28;20177;-86
2022/12/29 13:38:15;;;;;;;4.97;1.77;;;6.80;99.90;;;;;;4989153;28;20224;-85
2022/12/29 13:40:50;;;;;;;4.13;2.60;;;6.70;99.90;;;;;;4991189;28;20194;-87
2022/12/29 13:43:18;;;;;;;2.57;1.63;;;6.70;99.90;;;;;;4991904;28;20209;-85
2022/12/29 13:45:45;;;;;;;2.93;2.27;;;6.60;99.90;;;;;;5002897;28;20577;-85
2022/12/29 13:48:11;;;;;;;3.00;2.13;;;6.60;99.90;;;;;;4990769;28;20182;-85
2022/12/29 13:50:39;;;;;;;5.37;3.07;;;6.60;99.90;;;;;;4980447;28;20204;-85
2022/12/29 13:53:27;;;;;;;3.17;2.37;;;6.60;99.90;;;;;;4976099;28;20178;-85
2022/12/29 13:56:20;;;;;;;3.40;2.07;;;6.60;99.90;;;;;;5005102;28;20177;-85
2022/12/29 13:58:52;;;;;;;2.73;1.60;;;6.50;99.90;;;;;;4980198;28;21023;-85